sensor_id;sensor_type;location;lat;lon;timestamp;temperature;humidity
12911;DHT22;6523;49.758;6.120;2022-10-26T00:01:05;11.10;99.90
12911;DHT22;6523;49.758;6.120;2022-10-26T00:03:33;11.10;99.90
12911;DHT22;6523;49.758;6.120;2022-10-26T00:06:10;11.10;99.90
12911;DHT22;6523;49.758;6.120;2022-10-26T00:08:36;11.10;99.90
12911;DHT22;6523;49.758;6.120;2022-10-26T00:11:02;11.10;99.90
12911;DHT22;6523;49.758;6.120;2022-10-26T00:13:28;11.20;99.90
12911;DHT22;6523;49.758;6.120;2022-10-26T00:15:54;11.20;99.90
12911;DHT22;6523;49.758;6.120;2022-10-26T00:18:20;11.20;99.90
12911;DHT22;6523;49.758;6.120;2022-10-26T00:20:46;11.20;99.90
12911;DHT22;6523;49.758;6.120;2022-10-26T00:23:11;11.20;99.90
12911;DHT22;6523;49.758;6.120;2022-10-26T00:25:37;11.10;99.90
12911;DHT22;6523;49.758;6.120;2022-10-26T00:28:03;11.10;99.90
12911;DHT22;6523;49.758;6.120;2022-10-26T00:30:28;11.10;99.90
12911;DHT22;6523;49.758;6.120;2022-10-26T00:32:54;11.10;99.90
12911;DHT22;6523;49.758;6.120;2022-10-26T00:35:20;11.20;99.90
12911;DHT22;6523;49.758;6.120;2022-10-26T00:37:45;11.20;99.90
12911;DHT22;6523;49.758;6.120;2022-10-26T00:40:11;11.30;99.90
12911;DHT22;6523;49.758;6.120;2022-10-26T00:42:37;11.30;99.90
12911;DHT22;6523;49.758;6.120;2022-10-26T00:45:22;11.30;99.90
12911;DHT22;6523;49.758;6.120;2022-10-26T00:47:58;11.30;99.90
12911;DHT22;6523;49.758;6.120;2022-10-26T00:50:35;11.20;99.90
12911;DHT22;6523;49.758;6.120;2022-10-26T00:53:02;11.30;99.90
12911;DHT22;6523;49.758;6.120;2022-10-26T00:55:32;11.30;99.90
12911;DHT22;6523;49.758;6.120;2022-10-26T00:58:00;11.40;99.90
12911;DHT22;6523;49.758;6.120;2022-10-26T01:00:26;11.40;99.90
12911;DHT22;6523;49.758;6.120;2022-10-26T01:02:54;11.40;99.90
12911;DHT22;6523;49.758;6.120;2022-10-26T01:05:22;11.40;99.90
12911;DHT22;6523;49.758;6.120;2022-10-26T01:07:48;11.30;99.90
12911;DHT22;6523;49.758;6.120;2022-10-26T01:10:15;11.30;99.90
12911;DHT22;6523;49.758;6.120;2022-10-26T01:12:41;11.30;99.90
12911;DHT22;6523;49.758;6.120;2022-10-26T01:15:07;11.30;99.90
12911;DHT22;6523;49.758;6.120;2022-10-26T01:18:06;11.30;99.90
12911;DHT22;6523;49.758;6.120;2022-10-26T01:21:05;11.30;99.90
12911;DHT22;6523;49.758;6.120;2022-10-26T01:32:13;11.40;99.90
12911;DHT22;6523;49.758;6.120;2022-10-26T01:34:49;11.30;99.90
12911;DHT22;6523;49.758;6.120;2022-10-26T01:37:29;11.30;99.90
12911;DHT22;6523;49.758;6.120;2022-10-26T01:40:07;11.30;99.90
12911;DHT22;6523;49.758;6.120;2022-10-26T01:42:35;11.30;99.90
12911;DHT22;6523;49.758;6.120;2022-10-26T01:45:07;11.30;99.90
12911;DHT22;6523;49.758;6.120;2022-10-26T01:47:36;11.30;99.90
12911;DHT22;6523;49.758;6.120;2022-10-26T01:50:03;11.30;99.90
12911;DHT22;6523;49.758;6.120;2022-10-26T01:52:29;11.30;99.90
12911;DHT22;6523;49.758;6.120;2022-10-26T01:55:37;11.20;99.90
12911;DHT22;6523;49.758;6.120;2022-10-26T01:57:53;11.20;99.90
12911;DHT22;6523;49.758;6.120;2022-10-26T02:00:25;11.20;99.90
12911;DHT22;6523;49.758;6.120;2022-10-26T02:03:00;11.20;99.90
12911;DHT22;6523;49.758;6.120;2022-10-26T02:05:50;11.20;99.90
12911;DHT22;6523;49.758;6.120;2022-10-26T02:11:05;11.20;99.90
12911;DHT22;6523;49.758;6.120;2022-10-26T02:13:47;11.30;99.90
12911;DHT22;6523;49.758;6.120;2022-10-26T02:16:37;11.30;99.90
12911;DHT22;6523;49.758;6.120;2022-10-26T02:19:28;11.30;99.90
12911;DHT22;6523;49.758;6.120;2022-10-26T02:22:28;11.20;99.90
12911;DHT22;6523;49.758;6.120;2022-10-26T02:24:55;11.20;99.90
12911;DHT22;6523;49.758;6.120;2022-10-26T02:27:25;11.20;99.90
12911;DHT22;6523;49.758;6.120;2022-10-26T02:29:54;11.20;99.90
12911;DHT22;6523;49.758;6.120;2022-10-26T02:32:22;11.20;99.90
12911;DHT22;6523;49.758;6.120;2022-10-26T02:34:50;11.20;99.90
12911;DHT22;6523;49.758;6.120;2022-10-26T02:37:19;11.30;99.90
12911;DHT22;6523;49.758;6.120;2022-10-26T02:39:48;11.30;99.90
12911;DHT22;6523;49.758;6.120;2022-10-26T02:42:14;11.20;99.90
12911;DHT22;6523;49.758;6.120;2022-10-26T02:45:02;11.20;99.90
12911;DHT22;6523;49.758;6.120;2022-10-26T02:47:30;11.20;99.90
12911;DHT22;6523;49.758;6.120;2022-10-26T02:49:57;11.20;99.90
12911;DHT22;6523;49.758;6.120;2022-10-26T02:53:01;11.30;99.90
12911;DHT22;6523;49.758;6.120;2022-10-26T02:55:24;11.20;99.90
12911;DHT22;6523;49.758;6.120;2022-10-26T02:57:56;11.20;99.90
12911;DHT22;6523;49.758;6.120;2022-10-26T03:00:23;11.10;99.90
12911;DHT22;6523;49.758;6.120;2022-10-26T03:02:55;11.10;99.90
12911;DHT22;6523;49.758;6.120;2022-10-26T03:05:27;11.00;99.90
12911;DHT22;6523;49.758;6.120;2022-10-26T03:07:53;11.00;99.90
12911;DHT22;6523;49.758;6.120;2022-10-26T03:10:19;11.00;99.90
12911;DHT22;6523;49.758;6.120;2022-10-26T03:12:45;10.90;99.90
12911;DHT22;6523;49.758;6.120;2022-10-26T03:15:11;10.90;99.90
12911;DHT22;6523;49.758;6.120;2022-10-26T03:17:37;10.90;99.90
12911;DHT22;6523;49.758;6.120;2022-10-26T03:20:03;10.80;99.90
12911;DHT22;6523;49.758;6.120;2022-10-26T03:22:29;10.80;99.90
12911;DHT22;6523;49.758;6.120;2022-10-26T03:24:55;10.90;99.90
12911;DHT22;6523;49.758;6.120;2022-10-26T03:27:20;11.00;99.90
12911;DHT22;6523;49.758;6.120;2022-10-26T03:29:47;10.90;99.90
12911;DHT22;6523;49.758;6.120;2022-10-26T03:32:12;10.90;99.90
12911;DHT22;6523;49.758;6.120;2022-10-26T03:34:38;11.00;99.90
12911;DHT22;6523;49.758;6.120;2022-10-26T03:37:04;11.00;99.90
12911;DHT22;6523;49.758;6.120;2022-10-26T03:39:29;11.00;99.90
12911;DHT22;6523;49.758;6.120;2022-10-26T03:41:55;10.80;99.90
12911;DHT22;6523;49.758;6.120;2022-10-26T03:44:21;10.80;99.90
12911;DHT22;6523;49.758;6.120;2022-10-26T03:46:46;10.80;99.90
12911;DHT22;6523;49.758;6.120;2022-10-26T03:49:12;10.90;99.90
12911;DHT22;6523;49.758;6.120;2022-10-26T03:51:37;10.90;99.90
12911;DHT22;6523;49.758;6.120;2022-10-26T03:54:03;10.90;99.90
12911;DHT22;6523;49.758;6.120;2022-10-26T03:56:29;11.00;99.90
12911;DHT22;6523;49.758;6.120;2022-10-26T03:58:54;11.00;99.90
12911;DHT22;6523;49.758;6.120;2022-10-26T04:01:20;11.00;99.90
12911;DHT22;6523;49.758;6.120;2022-10-26T04:03:46;11.10;99.90
12911;DHT22;6523;49.758;6.120;2022-10-26T04:06:11;11.10;99.90
12911;DHT22;6523;49.758;6.120;2022-10-26T04:08:37;11.10;99.90
12911;DHT22;6523;49.758;6.120;2022-10-26T04:11:03;11.10;99.90
12911;DHT22;6523;49.758;6.120;2022-10-26T04:13:28;11.00;99.90
12911;DHT22;6523;49.758;6.120;2022-10-26T04:15:54;11.00;99.90
12911;DHT22;6523;49.758;6.120;2022-10-26T04:18:20;11.10;99.90
12911;DHT22;6523;49.758;6.120;2022-10-26T04:20:45;11.00;99.90
12911;DHT22;6523;49.758;6.120;2022-10-26T04:23:13;11.10;99.90
12911;DHT22;6523;49.758;6.120;2022-10-26T04:25:39;11.20;99.90
12911;DHT22;6523;49.758;6.120;2022-10-26T04:28:06;11.20;99.90
12911;DHT22;6523;49.758;6.120;2022-10-26T04:30:33;11.20;99.90
12911;DHT22;6523;49.758;6.120;2022-10-26T04:32:59;11.10;99.90
12911;DHT22;6523;49.758;6.120;2022-10-26T04:35:25;11.10;99.90
12911;DHT22;6523;49.758;6.120;2022-10-26T04:37:55;11.10;99.90
12911;DHT22;6523;49.758;6.120;2022-10-26T04:40:21;11.00;99.90
12911;DHT22;6523;49.758;6.120;2022-10-26T04:42:46;11.00;99.90
12911;DHT22;6523;49.758;6.120;2022-10-26T04:45:14;10.90;99.90
12911;DHT22;6523;49.758;6.120;2022-10-26T04:47:40;10.90;99.90
12911;DHT22;6523;49.758;6.120;2022-10-26T04:50:07;10.90;99.90
12911;DHT22;6523;49.758;6.120;2022-10-26T04:52:34;11.00;99.90
12911;DHT22;6523;49.758;6.120;2022-10-26T04:54:59;10.90;99.90
12911;DHT22;6523;49.758;6.120;2022-10-26T04:57:25;10.90;99.90
12911;DHT22;6523;49.758;6.120;2022-10-26T04:59:51;10.90;99.90
12911;DHT22;6523;49.758;6.120;2022-10-26T05:02:16;10.90;99.90
12911;DHT22;6523;49.758;6.120;2022-10-26T05:04:42;10.90;99.90
12911;DHT22;6523;49.758;6.120;2022-10-26T05:07:07;10.90;99.90
12911;DHT22;6523;49.758;6.120;2022-10-26T05:09:33;11.00;99.90
12911;DHT22;6523;49.758;6.120;2022-10-26T05:11:58;11.00;99.90
12911;DHT22;6523;49.758;6.120;2022-10-26T05:14:24;11.10;99.90
12911;DHT22;6523;49.758;6.120;2022-10-26T05:16:50;11.10;99.90
12911;DHT22;6523;49.758;6.120;2022-10-26T05:19:15;11.00;99.90
12911;DHT22;6523;49.758;6.120;2022-10-26T05:21:41;11.00;99.90
12911;DHT22;6523;49.758;6.120;2022-10-26T05:24:07;11.00;99.90
12911;DHT22;6523;49.758;6.120;2022-10-26T05:26:33;11.00;99.90
12911;DHT22;6523;49.758;6.120;2022-10-26T05:28:59;11.00;99.90
12911;DHT22;6523;49.758;6.120;2022-10-26T05:31:24;11.00;99.90
12911;DHT22;6523;49.758;6.120;2022-10-26T05:33:50;11.00;99.90
12911;DHT22;6523;49.758;6.120;2022-10-26T05:36:19;11.00;99.90
12911;DHT22;6523;49.758;6.120;2022-10-26T05:38:45;11.00;99.90
12911;DHT22;6523;49.758;6.120;2022-10-26T05:41:11;11.00;99.90
12911;DHT22;6523;49.758;6.120;2022-10-26T05:43:36;11.00;99.90
12911;DHT22;6523;49.758;6.120;2022-10-26T05:46:02;11.00;99.90
12911;DHT22;6523;49.758;6.120;2022-10-26T05:48:28;10.90;99.90
12911;DHT22;6523;49.758;6.120;2022-10-26T05:50:53;11.00;99.90
12911;DHT22;6523;49.758;6.120;2022-10-26T05:53:22;10.90;99.90
12911;DHT22;6523;49.758;6.120;2022-10-26T05:55:48;10.90;99.90
12911;DHT22;6523;49.758;6.120;2022-10-26T05:58:14;10.90;99.90
12911;DHT22;6523;49.758;6.120;2022-10-26T06:05:51;10.60;99.90
12911;DHT22;6523;49.758;6.120;2022-10-26T06:08:18;10.60;99.90
12911;DHT22;6523;49.758;6.120;2022-10-26T06:10:45;10.60;99.90
12911;DHT22;6523;49.758;6.120;2022-10-26T06:13:11;10.50;99.90
12911;DHT22;6523;49.758;6.120;2022-10-26T06:18:24;10.50;99.90
12911;DHT22;6523;49.758;6.120;2022-10-26T06:21:14;10.50;99.90
12911;DHT22;6523;49.758;6.120;2022-10-26T06:31:53;10.60;99.90
12911;DHT22;6523;49.758;6.120;2022-10-26T06:34:24;10.60;99.90
12911;DHT22;6523;49.758;6.120;2022-10-26T06:36:51;10.60;99.90
12911;DHT22;6523;49.758;6.120;2022-10-26T06:39:18;10.70;99.90
12911;DHT22;6523;49.758;6.120;2022-10-26T06:41:45;10.80;99.90
12911;DHT22;6523;49.758;6.120;2022-10-26T06:44:19;10.80;99.90
12911;DHT22;6523;49.758;6.120;2022-10-26T06:49:34;11.20;99.90
12911;DHT22;6523;49.758;6.120;2022-10-26T06:52:04;11.10;99.90
12911;DHT22;6523;49.758;6.120;2022-10-26T06:57:14;10.90;99.90
12911;DHT22;6523;49.758;6.120;2022-10-26T06:59:48;11.00;99.90
12911;DHT22;6523;49.758;6.120;2022-10-26T07:02:15;11.10;99.90
12911;DHT22;6523;49.758;6.120;2022-10-26T07:04:41;11.20;99.90
12911;DHT22;6523;49.758;6.120;2022-10-26T07:07:15;11.30;99.90
12911;DHT22;6523;49.758;6.120;2022-10-26T07:09:42;11.40;99.90
12911;DHT22;6523;49.758;6.120;2022-10-26T07:12:08;11.50;99.90
12911;DHT22;6523;49.758;6.120;2022-10-26T07:14:33;11.70;99.90
12911;DHT22;6523;49.758;6.120;2022-10-26T07:16:59;11.80;99.90
12911;DHT22;6523;49.758;6.120;2022-10-26T07:19:25;11.80;99.90
12911;DHT22;6523;49.758;6.120;2022-10-26T07:21:53;11.90;99.90
12911;DHT22;6523;49.758;6.120;2022-10-26T07:24:21;12.00;99.90
12911;DHT22;6523;49.758;6.120;2022-10-26T07:26:47;12.30;99.90
12911;DHT22;6523;49.758;6.120;2022-10-26T07:29:12;12.40;99.90
12911;DHT22;6523;49.758;6.120;2022-10-26T07:31:38;12.60;99.90
12911;DHT22;6523;49.758;6.120;2022-10-26T07:34:04;12.70;99.90
12911;DHT22;6523;49.758;6.120;2022-10-26T07:36:29;12.80;99.90
12911;DHT22;6523;49.758;6.120;2022-10-26T07:38:55;13.00;99.90
12911;DHT22;6523;49.758;6.120;2022-10-26T07:41:20;13.40;99.90
12911;DHT22;6523;49.758;6.120;2022-10-26T07:43:46;13.60;99.90
12911;DHT22;6523;49.758;6.120;2022-10-26T07:46:13;13.60;99.90
12911;DHT22;6523;49.758;6.120;2022-10-26T07:48:40;13.60;99.90
12911;DHT22;6523;49.758;6.120;2022-10-26T07:51:06;13.50;99.90
12911;DHT22;6523;49.758;6.120;2022-10-26T07:53:32;13.70;99.90
12911;DHT22;6523;49.758;6.120;2022-10-26T07:55:57;13.90;99.90
12911;DHT22;6523;49.758;6.120;2022-10-26T07:58:23;13.90;99.90
12911;DHT22;6523;49.758;6.120;2022-10-26T08:00:54;13.90;99.90
12911;DHT22;6523;49.758;6.120;2022-10-26T08:03:20;14.10;99.90
12911;DHT22;6523;49.758;6.120;2022-10-26T08:05:46;14.00;99.90
12911;DHT22;6523;49.758;6.120;2022-10-26T08:08:18;14.10;99.90
12911;DHT22;6523;49.758;6.120;2022-10-26T08:10:45;14.20;99.90
12911;DHT22;6523;49.758;6.120;2022-10-26T08:13:11;14.30;99.90
12911;DHT22;6523;49.758;6.120;2022-10-26T08:15:37;14.30;99.90
12911;DHT22;6523;49.758;6.120;2022-10-26T08:18:03;14.30;99.90
12911;DHT22;6523;49.758;6.120;2022-10-26T08:20:29;14.30;99.90
12911;DHT22;6523;49.758;6.120;2022-10-26T08:22:56;14.30;99.90
12911;DHT22;6523;49.758;6.120;2022-10-26T08:25:28;14.30;99.90
12911;DHT22;6523;49.758;6.120;2022-10-26T08:27:54;14.40;99.90
12911;DHT22;6523;49.758;6.120;2022-10-26T08:30:19;14.40;99.90
12911;DHT22;6523;49.758;6.120;2022-10-26T08:32:45;14.50;99.90
12911;DHT22;6523;49.758;6.120;2022-10-26T08:35:11;14.60;99.90
12911;DHT22;6523;49.758;6.120;2022-10-26T08:37:36;14.60;99.90
12911;DHT22;6523;49.758;6.120;2022-10-26T08:40:03;14.60;99.90
12911;DHT22;6523;49.758;6.120;2022-10-26T08:42:37;14.60;99.90
12911;DHT22;6523;49.758;6.120;2022-10-26T08:45:17;14.70;99.90
12911;DHT22;6523;49.758;6.120;2022-10-26T08:47:49;14.80;99.90
12911;DHT22;6523;49.758;6.120;2022-10-26T08:50:26;14.90;99.90
12911;DHT22;6523;49.758;6.120;2022-10-26T08:55:46;15.50;99.90
12911;DHT22;6523;49.758;6.120;2022-10-26T08:58:16;15.70;99.90
12911;DHT22;6523;49.758;6.120;2022-10-26T09:00:44;15.70;99.90
12911;DHT22;6523;49.758;6.120;2022-10-26T09:03:18;15.70;99.90
12911;DHT22;6523;49.758;6.120;2022-10-26T09:06:07;15.80;99.90
12911;DHT22;6523;49.758;6.120;2022-10-26T09:22:09;16.20;99.90
12911;DHT22;6523;49.758;6.120;2022-10-26T09:24:53;16.40;99.90
12911;DHT22;6523;49.758;6.120;2022-10-26T09:27:25;16.40;99.90
12911;DHT22;6523;49.758;6.120;2022-10-26T09:29:52;16.50;99.90
12911;DHT22;6523;49.758;6.120;2022-10-26T09:32:20;16.70;99.90
12911;DHT22;6523;49.758;6.120;2022-10-26T09:34:53;16.70;99.90
12911;DHT22;6523;49.758;6.120;2022-10-26T09:37:33;16.80;99.90
12911;DHT22;6523;49.758;6.120;2022-10-26T09:40:37;16.90;99.90
12911;DHT22;6523;49.758;6.120;2022-10-26T09:43:11;16.90;99.90
12911;DHT22;6523;49.758;6.120;2022-10-26T09:45:41;16.90;99.90
12911;DHT22;6523;49.758;6.120;2022-10-26T09:50:56;16.90;99.90
12911;DHT22;6523;49.758;6.120;2022-10-26T09:53:24;16.90;99.90
12911;DHT22;6523;49.758;6.120;2022-10-26T09:56:04;16.90;99.90
12911;DHT22;6523;49.758;6.120;2022-10-26T10:01:29;17.40;99.90
12911;DHT22;6523;49.758;6.120;2022-10-26T10:06:41;17.60;99.90
12911;DHT22;6523;49.758;6.120;2022-10-26T10:11:45;17.90;99.90
12911;DHT22;6523;49.758;6.120;2022-10-26T10:14:16;17.90;99.90
12911;DHT22;6523;49.758;6.120;2022-10-26T10:16:53;18.20;99.90
12911;DHT22;6523;49.758;6.120;2022-10-26T10:19:33;18.20;99.90
12911;DHT22;6523;49.758;6.120;2022-10-26T10:22:00;18.20;99.90
12911;DHT22;6523;49.758;6.120;2022-10-26T10:24:34;18.20;99.90
12911;DHT22;6523;49.758;6.120;2022-10-26T10:29:32;18.30;99.90
12911;DHT22;6523;49.758;6.120;2022-10-26T10:32:01;18.40;99.90
12911;DHT22;6523;49.758;6.120;2022-10-26T10:34:29;18.50;99.90
12911;DHT22;6523;49.758;6.120;2022-10-26T10:36:55;18.70;99.90
12911;DHT22;6523;49.758;6.120;2022-10-26T10:39:34;18.80;99.90
12911;DHT22;6523;49.758;6.120;2022-10-26T10:42:02;18.90;99.90
12911;DHT22;6523;49.758;6.120;2022-10-26T10:44:30;19.00;99.90
12911;DHT22;6523;49.758;6.120;2022-10-26T10:47:05;19.10;99.90
12911;DHT22;6523;49.758;6.120;2022-10-26T10:49:31;19.00;99.90
12911;DHT22;6523;49.758;6.120;2022-10-26T10:51:58;19.30;99.90
12911;DHT22;6523;49.758;6.120;2022-10-26T10:54:33;19.30;99.90
12911;DHT22;6523;49.758;6.120;2022-10-26T10:59:49;19.30;99.90
12911;DHT22;6523;49.758;6.120;2022-10-26T11:10:25;19.30;99.90
12911;DHT22;6523;49.758;6.120;2022-10-26T11:12:56;19.40;99.90
12911;DHT22;6523;49.758;6.120;2022-10-26T11:15:26;19.50;99.90
12911;DHT22;6523;49.758;6.120;2022-10-26T11:18:01;19.40;99.90
12911;DHT22;6523;49.758;6.120;2022-10-26T11:20:34;19.40;99.90
12911;DHT22;6523;49.758;6.120;2022-10-26T11:23:04;19.70;99.90
12911;DHT22;6523;49.758;6.120;2022-10-26T11:25:39;19.90;99.90
12911;DHT22;6523;49.758;6.120;2022-10-26T11:28:15;19.80;99.90
12911;DHT22;6523;49.758;6.120;2022-10-26T11:30:48;19.70;99.90
12911;DHT22;6523;49.758;6.120;2022-10-26T11:33:40;19.50;99.90
12911;DHT22;6523;49.758;6.120;2022-10-26T11:36:11;19.60;99.90
12911;DHT22;6523;49.758;6.120;2022-10-26T11:38:51;19.50;99.90
12911;DHT22;6523;49.758;6.120;2022-10-26T11:41:30;19.80;99.90
12911;DHT22;6523;49.758;6.120;2022-10-26T11:47:04;19.80;99.90
12911;DHT22;6523;49.758;6.120;2022-10-26T11:49:46;19.60;99.90
12911;DHT22;6523;49.758;6.120;2022-10-26T11:55:14;19.90;99.90
12911;DHT22;6523;49.758;6.120;2022-10-26T11:57:41;20.10;99.90
12911;DHT22;6523;49.758;6.120;2022-10-26T12:00:08;20.20;99.90
12911;DHT22;6523;49.758;6.120;2022-10-26T12:02:40;20.40;99.90
12911;DHT22;6523;49.758;6.120;2022-10-26T12:05:19;20.40;99.90
12911;DHT22;6523;49.758;6.120;2022-10-26T12:07:58;20.30;99.90
12911;DHT22;6523;49.758;6.120;2022-10-26T12:15:43;20.50;99.90
12911;DHT22;6523;49.758;6.120;2022-10-26T12:21:00;20.60;99.90
12911;DHT22;6523;49.758;6.120;2022-10-26T12:23:37;20.50;99.90
12911;DHT22;6523;49.758;6.120;2022-10-26T12:34:14;20.60;99.90
12911;DHT22;6523;49.758;6.120;2022-10-26T12:39:30;20.90;99.90
12911;DHT22;6523;49.758;6.120;2022-10-26T12:44:38;21.20;99.90
12911;DHT22;6523;49.758;6.120;2022-10-26T12:47:06;21.30;99.90
12911;DHT22;6523;49.758;6.120;2022-10-26T12:58:35;21.30;99.90
12911;DHT22;6523;49.758;6.120;2022-10-26T13:06:44;21.40;99.90
12911;DHT22;6523;49.758;6.120;2022-10-26T13:09:16;21.70;99.90
12911;DHT22;6523;49.758;6.120;2022-10-26T13:11:50;21.80;99.90
12911;DHT22;6523;49.758;6.120;2022-10-26T13:14:35;21.80;99.90
12911;DHT22;6523;49.758;6.120;2022-10-26T13:17:03;21.60;99.90
12911;DHT22;6523;49.758;6.120;2022-10-26T13:21:58;21.30;99.90
12911;DHT22;6523;49.758;6.120;2022-10-26T13:24:27;21.20;99.90
12911;DHT22;6523;49.758;6.120;2022-10-26T13:29:29;21.10;99.90
12911;DHT22;6523;49.758;6.120;2022-10-26T13:31:55;21.10;99.90
12911;DHT22;6523;49.758;6.120;2022-10-26T13:34:23;21.30;99.90
12911;DHT22;6523;49.758;6.120;2022-10-26T13:39:40;21.60;99.90
12911;DHT22;6523;49.758;6.120;2022-10-26T13:42:06;21.80;99.90
12911;DHT22;6523;49.758;6.120;2022-10-26T13:44:37;22.10;99.90
12911;DHT22;6523;49.758;6.120;2022-10-26T13:47:08;22.10;99.90
12911;DHT22;6523;49.758;6.120;2022-10-26T13:49:58;21.90;99.90
12911;DHT22;6523;49.758;6.120;2022-10-26T13:52:37;21.80;99.90
12911;DHT22;6523;49.758;6.120;2022-10-26T13:55:14;21.90;99.90
12911;DHT22;6523;49.758;6.120;2022-10-26T14:00:30;21.60;99.90
12911;DHT22;6523;49.758;6.120;2022-10-26T14:02:56;21.40;99.90
12911;DHT22;6523;49.758;6.120;2022-10-26T14:05:22;21.50;99.90
12911;DHT22;6523;49.758;6.120;2022-10-26T14:07:54;21.10;99.90
12911;DHT22;6523;49.758;6.120;2022-10-26T14:10:36;20.90;99.90
12911;DHT22;6523;49.758;6.120;2022-10-26T14:13:12;21.00;99.90
12911;DHT22;6523;49.758;6.120;2022-10-26T14:15:42;20.90;99.90
12911;DHT22;6523;49.758;6.120;2022-10-26T14:18:17;20.70;99.90
12911;DHT22;6523;49.758;6.120;2022-10-26T14:21:05;20.60;99.90
12911;DHT22;6523;49.758;6.120;2022-10-26T14:23:36;20.40;99.90
12911;DHT22;6523;49.758;6.120;2022-10-26T14:26:03;20.40;99.90
12911;DHT22;6523;49.758;6.120;2022-10-26T14:28:31;20.60;99.90
12911;DHT22;6523;49.758;6.120;2022-10-26T14:31:11;20.60;99.90
12911;DHT22;6523;49.758;6.120;2022-10-26T14:33:36;20.80;99.90
12911;DHT22;6523;49.758;6.120;2022-10-26T14:36:02;21.00;99.90
12911;DHT22;6523;49.758;6.120;2022-10-26T14:38:33;21.50;99.90
12911;DHT22;6523;49.758;6.120;2022-10-26T14:41:01;21.30;99.90
12911;DHT22;6523;49.758;6.120;2022-10-26T14:43:27;21.50;99.90
12911;DHT22;6523;49.758;6.120;2022-10-26T14:45:53;21.00;99.90
12911;DHT22;6523;49.758;6.120;2022-10-26T14:48:22;21.30;99.90
12911;DHT22;6523;49.758;6.120;2022-10-26T14:51:07;21.50;99.90
12911;DHT22;6523;49.758;6.120;2022-10-26T14:53:37;21.30;99.90
12911;DHT22;6523;49.758;6.120;2022-10-26T14:58:41;21.30;99.90
12911;DHT22;6523;49.758;6.120;2022-10-26T15:01:15;21.10;99.90
12911;DHT22;6523;49.758;6.120;2022-10-26T15:03:42;20.90;99.90
12911;DHT22;6523;49.758;6.120;2022-10-26T15:08:56;20.90;99.90
12911;DHT22;6523;49.758;6.120;2022-10-26T15:11:22;21.00;99.90
12911;DHT22;6523;49.758;6.120;2022-10-26T15:13:48;20.50;99.90
12911;DHT22;6523;49.758;6.120;2022-10-26T15:18:46;20.50;99.90
12911;DHT22;6523;49.758;6.120;2022-10-26T15:21:23;20.60;99.90
12911;DHT22;6523;49.758;6.120;2022-10-26T15:23:50;20.60;99.90
12911;DHT22;6523;49.758;6.120;2022-10-26T15:26:17;20.20;99.90
12911;DHT22;6523;49.758;6.120;2022-10-26T15:28:42;20.40;99.90
12911;DHT22;6523;49.758;6.120;2022-10-26T15:33:41;20.50;99.90
12911;DHT22;6523;49.758;6.120;2022-10-26T15:38:36;20.60;99.90
12911;DHT22;6523;49.758;6.120;2022-10-26T15:41:17;20.50;99.90
12911;DHT22;6523;49.758;6.120;2022-10-26T15:43:46;20.30;99.90
12911;DHT22;6523;49.758;6.120;2022-10-26T15:46:13;20.30;99.90
12911;DHT22;6523;49.758;6.120;2022-10-26T15:48:39;20.50;99.90
12911;DHT22;6523;49.758;6.120;2022-10-26T15:51:05;20.40;99.90
12911;DHT22;6523;49.758;6.120;2022-10-26T15:53:32;20.20;99.90
12911;DHT22;6523;49.758;6.120;2022-10-26T15:55:58;19.90;99.90
12911;DHT22;6523;49.758;6.120;2022-10-26T15:58:30;19.70;99.90
12911;DHT22;6523;49.758;6.120;2022-10-26T16:00:56;19.50;99.90
12911;DHT22;6523;49.758;6.120;2022-10-26T16:03:23;19.50;99.90
12911;DHT22;6523;49.758;6.120;2022-10-26T16:05:55;19.30;99.90
12911;DHT22;6523;49.758;6.120;2022-10-26T16:08:21;18.90;99.90
12911;DHT22;6523;49.758;6.120;2022-10-26T16:10:47;18.70;99.90
12911;DHT22;6523;49.758;6.120;2022-10-26T16:13:13;18.50;99.90
12911;DHT22;6523;49.758;6.120;2022-10-26T16:15:39;18.20;99.90
12911;DHT22;6523;49.758;6.120;2022-10-26T16:18:05;18.00;99.90
12911;DHT22;6523;49.758;6.120;2022-10-26T16:20:31;17.80;99.90
12911;DHT22;6523;49.758;6.120;2022-10-26T16:22:57;17.50;99.90
12911;DHT22;6523;49.758;6.120;2022-10-26T16:25:26;17.00;99.90
12911;DHT22;6523;49.758;6.120;2022-10-26T16:27:53;16.80;99.90
12911;DHT22;6523;49.758;6.120;2022-10-26T16:30:20;16.80;99.90
12911;DHT22;6523;49.758;6.120;2022-10-26T16:32:45;16.70;99.90
12911;DHT22;6523;49.758;6.120;2022-10-26T16:35:11;16.40;99.90
12911;DHT22;6523;49.758;6.120;2022-10-26T16:37:37;16.00;99.90
12911;DHT22;6523;49.758;6.120;2022-10-26T16:40:04;15.80;99.90
12911;DHT22;6523;49.758;6.120;2022-10-26T16:42:30;15.80;99.90
12911;DHT22;6523;49.758;6.120;2022-10-26T16:44:57;15.80;99.90
12911;DHT22;6523;49.758;6.120;2022-10-26T16:47:22;15.80;99.90
12911;DHT22;6523;49.758;6.120;2022-10-26T16:49:48;16.00;99.90
12911;DHT22;6523;49.758;6.120;2022-10-26T16:52:14;15.80;99.90
12911;DHT22;6523;49.758;6.120;2022-10-26T16:54:39;15.80;99.90
12911;DHT22;6523;49.758;6.120;2022-10-26T16:57:05;15.70;99.90
12911;DHT22;6523;49.758;6.120;2022-10-26T16:59:31;15.70;99.90
12911;DHT22;6523;49.758;6.120;2022-10-26T17:01:57;15.80;99.90
12911;DHT22;6523;49.758;6.120;2022-10-26T17:04:22;15.60;99.90
12911;DHT22;6523;49.758;6.120;2022-10-26T17:06:48;15.10;99.90
12911;DHT22;6523;49.758;6.120;2022-10-26T17:09:14;15.10;99.90
12911;DHT22;6523;49.758;6.120;2022-10-26T17:11:39;15.20;99.90
12911;DHT22;6523;49.758;6.120;2022-10-26T17:14:05;15.20;99.90
12911;DHT22;6523;49.758;6.120;2022-10-26T17:16:31;15.00;99.90
12911;DHT22;6523;49.758;6.120;2022-10-26T17:18:57;15.20;99.90
12911;DHT22;6523;49.758;6.120;2022-10-26T17:21:31;15.10;99.90
12911;DHT22;6523;49.758;6.120;2022-10-26T17:23:57;15.20;99.90
12911;DHT22;6523;49.758;6.120;2022-10-26T17:26:23;15.20;99.90
12911;DHT22;6523;49.758;6.120;2022-10-26T17:28:53;15.10;99.90
12911;DHT22;6523;49.758;6.120;2022-10-26T17:31:19;15.00;99.90
12911;DHT22;6523;49.758;6.120;2022-10-26T17:33:45;14.70;99.90
12911;DHT22;6523;49.758;6.120;2022-10-26T17:36:15;14.50;99.90
12911;DHT22;6523;49.758;6.120;2022-10-26T17:38:42;14.30;99.90
12911;DHT22;6523;49.758;6.120;2022-10-26T17:41:10;14.10;99.90
12911;DHT22;6523;49.758;6.120;2022-10-26T17:43:37;14.10;99.90
12911;DHT22;6523;49.758;6.120;2022-10-26T17:46:15;14.10;99.90
12911;DHT22;6523;49.758;6.120;2022-10-26T17:48:41;14.10;99.90
12911;DHT22;6523;49.758;6.120;2022-10-26T17:51:16;14.00;99.90
12911;DHT22;6523;49.758;6.120;2022-10-26T17:53:44;14.00;99.90
12911;DHT22;6523;49.758;6.120;2022-10-26T17:56:13;14.00;99.90
12911;DHT22;6523;49.758;6.120;2022-10-26T17:58:39;13.90;99.90
12911;DHT22;6523;49.758;6.120;2022-10-26T18:01:10;14.00;99.90
12911;DHT22;6523;49.758;6.120;2022-10-26T18:03:37;13.80;99.90
12911;DHT22;6523;49.758;6.120;2022-10-26T18:06:03;13.80;99.90
12911;DHT22;6523;49.758;6.120;2022-10-26T18:08:32;13.70;99.90
12911;DHT22;6523;49.758;6.120;2022-10-26T18:10:58;13.50;99.90
12911;DHT22;6523;49.758;6.120;2022-10-26T18:13:26;13.30;99.90
12911;DHT22;6523;49.758;6.120;2022-10-26T18:15:51;13.50;99.90
12911;DHT22;6523;49.758;6.120;2022-10-26T18:18:17;13.40;99.90